Time;durP1;ratioP1;P1;durP2;ratioP2;P2;SDS_P1;SDS_P2;PMS_P1;PMS_P2;Temp;Humidity;BMP_temperature;BMP_pressure;BME280_temperature;BME280_humidity;BME280_pressure;Samples;Min_cycle;Max_cycle;Signal;HPM_P1;HPM_P2
2021/12/07 00:02:13;;;;;;;3.25;0.85;;;;;;;2.92;76.76;99849.44;6162108;23;20062;-74
2021/12/07 00:08:51;;;;;;;;;;;;;;;;;;;;;
2021/12/07 00:31:35;;;;;;;1.65;1.05;;;;;;;2.97;76.05;99852.25;6219687;23;20019;-74
2021/12/07 00:34:14;;;;;;;1.15;0.60;;;;;;;2.94;75.75;99852.72;6194752;23;20016;-71
2021/12/07 00:36:45;;;;;;;6.13;1.15;;;;;;;2.88;75.65;99837.44;6217929;23;20008;-74
2021/12/07 00:39:19;;;;;;;3.38;0.85;;;;;;;2.89;75.60;99833.69;6193798;23;20083;-73
2021/12/07 00:41:45;;;;;;;1.67;0.52;;;;;;;2.85;75.79;99821.69;6190707;23;20000;-74
2021/12/07 00:44:16;;;;;;;0.43;0.43;;;;;;;2.81;75.57;99815.09;6193664;23;20012;-72
2021/12/07 00:46:42;;;;;;;5.47;0.60;;;;;;;2.83;75.98;99810.28;6219305;23;20008;-72
2021/12/07 00:49:10;;;;;;;2.95;0.57;;;;;;;2.77;75.85;99800.41;6194364;23;20008;-73
2021/12/07 00:51:35;;;;;;;2.17;0.70;;;;;;;2.81;75.50;99812.38;6223371;23;20000;-73
2021/12/07 00:54:01;;;;;;;21.27;1.15;;;;;;;2.75;75.30;99794.41;6196311;23;20016;-74
2021/12/07 00:56:30;;;;;;;3.42;0.63;;;;;;;2.76;76.17;99802.28;6220730;23;20047;-75
2021/12/07 00:58:56;;;;;;;2.30;1.30;;;;;;;2.85;76.18;99810.03;6217276;23;20008;-75
2021/12/07 01:01:22;;;;;;;1.20;0.85;;;;;;;2.76;76.46;99796.03;6221817;23;20123;-75
2021/12/07 01:03:50;;;;;;;1.52;0.77;;;;;;;2.87;76.30;99807.94;6217243;23;20016;-75
2021/12/07 01:08:58;;;;;;;4.40;0.55;;;;;;;2.91;76.09;99818.06;6232598;23;20008;-75
2021/12/07 01:25:19;;;;;;;2.97;0.80;;;;;;;3.03;76.13;99817.28;6222530;23;20047;-74
2021/12/07 01:27:50;;;;;;;5.20;1.05;;;;;;;3.07;76.19;99821.97;6218613;23;20012;-74
2021/12/07 01:30:36;;;;;;;3.65;0.63;;;;;;;3.18;75.95;99819.53;6193956;23;20684;-76
2021/12/07 01:33:31;;;;;;;1.88;0.85;;;;;;;3.06;76.13;99795.19;6217948;23;20079;-75
2021/12/07 01:38:35;;;;;;;1.95;1.05;;;;;;;3.20;75.77;99795.78;6229350;23;20004;-75
2021/12/07 01:59:53;;;;;;;1.50;0.70;;;;;;;3.26;75.13;99795.69;6230556;23;20008;-75
2021/12/07 02:02:21;;;;;;;5.47;1.02;;;;;;;3.13;75.18;99777.00;6195311;23;20018;-75
2021/12/07 02:04:47;;;;;;;4.28;1.05;;;;;;;3.07;75.39;99764.44;6220531;23;20004;-75
2021/12/07 02:07:14;;;;;;;2.30;1.00;;;;;;;3.05;75.07;99758.44;6222363;23;20001;-74
2021/12/07 02:09:48;;;;;;;5.13;0.68;;;;;;;3.10;74.90;99769.38;6195843;23;20003;-76
2021/12/07 02:12:14;;;;;;;1.55;0.50;;;;;;;3.05;75.16;99771.94;6193336;23;20032;-75
2021/12/07 02:14:41;;;;;;;1.25;0.68;;;;;;;3.01;75.00;99762.63;6219205;23;20050;-75
2021/12/07 02:17:09;;;;;;;6.57;1.00;;;;;;;2.88;75.00;99740.19;6222375;23;20482;-75
2021/12/07 02:19:38;;;;;;;2.80;0.90;;;;;;;2.92;74.74;99754.91;6196756;23;20000;-74
2021/12/07 02:22:03;;;;;;;1.55;1.17;;;;;;;2.82;75.22;99754.63;6198120;23;20076;-75
2021/12/07 02:24:29;;;;;;;3.00;0.75;;;;;;;2.74;75.33;99749.56;6194999;23;20036;-75
2021/12/07 02:27:05;;;;;;;1.73;1.02;;;;;;;2.77;75.02;99746.41;6222284;23;20016;-74
2021/12/07 02:29:31;;;;;;;5.45;1.10;;;;;;;2.85;75.29;99756.88;6195368;23;20035;-75
2021/12/07 02:31:58;;;;;;;3.33;0.85;;;;;;;2.79;75.56;99757.81;6197202;23;20005;-77
2021/12/07 02:34:27;;;;;;;2.33;0.68;;;;;;;2.71;75.78;99760.81;6221695;23;20122;-78
2021/12/07 02:46:33;;;;;;;0.93;0.32;;;;;;;2.88;75.65;99721.28;6204814;23;20435;-77
2021/12/07 02:49:05;;;;;;;6.80;1.13;;;;;;;2.97;75.90;99722.59;6195974;23;20005;-77
2021/12/07 02:51:34;;;;;;;1.85;0.52;;;;;;;2.99;75.71;99705.34;6224227;23;20008;-77
2021/12/07 02:54:00;;;;;;;1.38;0.60;;;;;;;3.26;75.74;99724.63;6220350;23;20011;-77
2021/12/07 02:56:26;;;;;;;5.47;0.50;;;;;;;3.32;75.55;99724.50;6196854;23;20085;-77
2021/12/07 02:58:58;;;;;;;2.45;1.38;;;;;;;3.32;75.31;99716.38;6226332;23;20339;-76
2021/12/07 03:01:29;;;;;;;6.78;1.20;;;;;;;3.28;75.75;99696.28;6199814;23;20008;-76
2021/12/07 03:04:15;;;;;;;4.18;0.90;;;;;;;3.27;75.15;99691.97;6200514;23;20004;-78
2021/12/07 03:07:02;;;;;;;;;;;;;;;3.44;75.14;99708.25;6197508;23;20087;-76
2021/12/07 03:26:10;;;;;;;2.20;0.50;;;;;;;3.52;74.97;99674.66;6221663;23;20023;-76
2021/12/07 03:28:45;;;;;;;2.90;0.80;;;;;;;3.64;74.72;99678.16;6198460;23;20013;-77
2021/12/07 03:31:18;;;;;;;0.28;0.15;;;;;;;3.56;74.94;99675.00;6223398;23;20000;-77
2021/12/07 03:33:49;;;;;;;2.72;0.30;;;;;;;3.59;74.91;99682.63;6190756;23;20035;-77
2021/12/07 03:36:15;;;;;;;0.22;0.20;;;;;;;3.66;74.17;99686.88;6168261;23;20096;-73
2021/12/07 03:38:41;;;;;;;0.68;0.28;;;;;;;3.74;74.58;99690.22;6192064;23;20004;-74
2021/12/07 03:41:07;;;;;;;0.47;0.30;;;;;;;3.67;74.98;99677.66;6170464;23;20008;-75
2021/12/07 03:43:33;;;;;;;9.20;0.55;;;;;;;3.72;75.05;99676.13;6196720;23;20079;-73
2021/12/07 03:45:59;;;;;;;1.58;0.80;;;;;;;3.73;74.24;99672.38;6195208;23;20521;-75
2021/12/07 03:48:26;;;;;;;2.67;0.70;;;;;;;3.75;74.56;99662.13;6221788;23;20059;-73
2021/12/07 03:50:52;;;;;;;4.85;1.08;;;;;;;3.85;74.38;99678.56;6195698;23;20012;-73
2021/12/07 03:53:20;;;;;;;0.73;0.50;;;;;;;3.83;73.96;99670.69;6196449;23;20005;-73
2021/12/07 03:55:46;;;;;;;0.68;0.35;;;;;;;3.89;74.02;99668.09;6195607;23;20028;-74
2021/12/07 03:58:12;;;;;;;2.20;0.70;;;;;;;3.99;73.79;99668.31;6222244;23;20680;-74
2021/12/07 04:00:43;;;;;;;0.75;0.25;;;;;;;3.97;73.69;99651.47;6196885;23;20327;-74
2021/12/07 04:03:11;;;;;;;1.65;0.28;;;;;;;4.01;73.62;99658.84;6196619;23;20356;-74
2021/12/07 04:05:45;;;;;;;0.32;0.20;;;;;;;4.07;73.84;99658.97;6194540;23;20008;-75
2021/12/07 04:08:20;;;;;;;0.80;0.20;;;;;;;4.08;73.14;99649.78;6222485;23;20009;-74
2021/12/07 04:10:56;;;;;;;1.45;0.30;;;;;;;4.10;73.36;99640.34;6171354;23;20013;-75
2021/12/07 04:13:23;;;;;;;2.80;0.40;;;;;;;3.95;73.79;99613.84;6148175;23;20004;-74
2021/12/07 04:15:51;;;;;;;0.65;0.30;;;;;;;4.01;73.20;99618.28;6222095;23;20062;-75
2021/12/07 04:18:20;;;;;;;0.80;0.77;;;;;;;4.06;73.05;99611.31;6194570;23;20004;-74
2021/12/07 04:20:48;;;;;;;1.27;0.20;;;;;;;4.14;73.20;99619.06;6169936;23;20416;-74
2021/12/07 04:23:14;;;;;;;1.30;0.20;;;;;;;4.12;73.83;99602.25;6222768;23;20012;-74
2021/12/07 04:25:40;;;;;;;2.53;0.20;;;;;;;4.18;73.17;99601.28;6221332;23;20008;-74
2021/12/07 04:28:11;;;;;;;0.45;0.38;;;;;;;4.13;73.49;99593.06;6194978;23;20020;-74
2021/12/07 04:30:40;;;;;;;2.22;0.20;;;;;;;4.18;73.17;99588.56;6192853;23;20000;-73
2021/12/07 04:33:08;;;;;;;0.20;0.20;;;;;;;4.23;73.58;99592.41;6222446;23;20010;-73
2021/12/07 04:35:35;;;;;;;2.03;0.28;;;;;;;4.20;73.00;99585.59;6195450;23;20004;-74
2021/12/07 04:38:00;;;;;;;0.80;0.30;;;;;;;4.00;72.78;99567.97;6194378;23;20008;-73
2021/12/07 04:40:30;;;;;;;0.40;0.30;;;;;;;4.12;73.35;99588.72;6221910;23;20054;-73
2021/12/07 04:42:56;;;;;;;0.50;0.30;;;;;;;4.09;72.95;99564.84;6194392;23;20443;-75
2021/12/07 04:58:57;;;;;;;0.47;0.20;;;;;;;4.00;73.12;99535.50;6198556;23;20016;-73
2021/12/07 05:01:36;;;;;;;;;;;;;;;;;;;;;
2021/12/07 05:04:27;;;;;;;0.10;0.00;;;;;;;4.06;73.45;99540.97;6220530;23;20020;-74
2021/12/07 05:07:01;;;;;;;1.30;0.20;;;;;;;4.14;73.61;99546.00;6195364;23;20061;-74
2021/12/07 05:12:24;;;;;;;0.85;0.10;;;;;;;3.99;73.32;99503.28;6231183;23;20067;-73
2021/12/07 05:14:59;;;;;;;0.03;0.03;;;;;;;3.97;73.30;99508.94;6212563;23;20023;-73
2021/12/07 05:17:55;;;;;;;0.20;0.00;;;;;;;4.09;73.46;99516.13;6196771;23;20446;-73
2021/12/07 05:39:47;;;;;;;1.88;0.38;;;;;;;4.06;73.66;99435.47;6203979;23;20023;-75
2021/12/07 05:42:13;;;;;;;0.77;0.30;;;;;;;4.10;72.98;99431.19;6193422;23;20011;-73
2021/12/07 05:44:50;;;;;;;0.88;0.45;;;;;;;4.09;72.98;99413.31;6197928;23;20012;-75
2021/12/07 05:56:11;;;;;;;0.73;0.30;;;;;;;4.16;73.02;99340.91;6192232;22;20047;-76
2021/12/07 05:58:36;;;;;;;1.60;0.38;;;;;;;4.18;72.65;99336.88;6192641;23;20080;-75
2021/12/07 06:01:22;;;;;;;0.50;0.40;;;;;;;4.29;73.36;99339.72;6192987;23;20327;-76
2021/12/07 06:03:48;;;;;;;1.23;0.10;;;;;;;4.28;73.42;99330.78;6192329;23;20009;-76
2021/12/07 06:06:21;;;;;;;0.10;0.10;;;;;;;4.29;72.75;99321.63;6192531;23;20400;-75
2021/12/07 06:08:49;;;;;;;0.20;0.20;;;;;;;4.54;73.33;99339.22;6191919;23;20039;-75
2021/12/07 06:11:15;;;;;;;1.13;0.28;;;;;;;4.56;72.79;99328.97;6192090;23;20088;-75
2021/12/07 06:13:44;;;;;;;3.80;0.22;;;;;;;4.48;72.98;99302.31;6191890;23;20332;-76
2021/12/07 06:16:09;;;;;;;0.47;0.28;;;;;;;4.57;73.55;99295.41;6190040;23;20332;-76
2021/12/07 06:18:37;;;;;;;0.50;0.20;;;;;;;4.66;73.22;99298.47;6190338;23;20009;-76
2021/12/07 06:21:04;;;;;;;0.60;0.20;;;;;;;4.61;72.66;99279.47;6192384;23;20091;-76
2021/12/07 06:23:29;;;;;;;0.40;0.20;;;;;;;4.77;72.53;99299.41;6192532;23;20005;-76
2021/12/07 06:25:56;;;;;;;2.53;0.50;;;;;;;4.83;72.93;99287.53;6190118;23;20442;-77
2021/12/07 06:28:22;;;;;;;1.15;0.30;;;;;;;4.88;72.46;99293.00;6191629;23;20009;-76
2021/12/07 06:30:50;;;;;;;3.00;0.30;;;;;;;4.84;72.93;99262.91;6191350;23;20028;-77
2021/12/07 06:33:19;;;;;;;0.25;0.22;;;;;;;4.94;72.15;99255.97;6194012;23;20005;-76
2021/12/07 06:35:45;;;;;;;2.40;0.47;;;;;;;4.99;72.37;99253.28;6192994;23;20012;-76
2021/12/07 06:38:11;;;;;;;0.45;0.30;;;;;;;5.10;72.54;99259.63;6193225;23;20011;-77
2021/12/07 06:40:37;;;;;;;0.30;0.25;;;;;;;5.06;72.67;99243.03;6192395;23;20009;-75
2021/12/07 06:43:03;;;;;;;0.50;0.20;;;;;;;5.06;71.53;99233.00;6197962;23;20024;-77
2021/12/07 06:45:32;;;;;;;4.40;0.28;;;;;;;5.20;71.77;99248.84;6198781;23;20001;-76
2021/12/07 06:48:01;;;;;;;0.63;0.45;;;;;;;5.19;72.15;99233.66;6197889;23;20005;-76
2021/12/07 06:50:30;;;;;;;1.85;0.22;;;;;;;5.22;71.88;99231.25;6195227;23;20055;-75
2021/12/07 06:52:56;;;;;;;0.25;0.10;;;;;;;5.12;72.03;99204.06;6192238;23;20008;-76
2021/12/07 06:55:24;;;;;;;4.38;0.60;;;;;;;5.19;71.68;99198.44;6189993;23;20103;-76
2021/12/07 06:57:58;;;;;;;3.08;0.52;;;;;;;5.07;72.03;99182.38;6190775;23;20440;-76
2021/12/07 07:00:25;;;;;;;0.57;0.20;;;;;;;5.23;72.17;99199.53;6191755;23;20009;-76
2021/12/07 07:02:52;;;;;;;2.10;0.50;;;;;;;5.24;72.16;99193.03;6167918;23;20017;-75
2021/12/07 07:05:19;;;;;;;0.88;0.28;;;;;;;5.25;71.99;99186.53;6194535;23;20029;-74
2021/12/07 07:07:48;;;;;;;1.23;0.32;;;;;;;5.19;71.63;99168.63;6191386;23;20012;-76
2021/12/07 07:10:18;;;;;;;0.60;0.40;;;;;;;5.09;72.03;99155.81;6192336;23;20012;-76
2021/12/07 07:12:44;;;;;;;0.85;0.85;;;;;;;5.15;71.83;99153.94;6193209;23;20364;-75
2021/12/07 07:15:22;;;;;;;1.98;0.50;;;;;;;5.21;71.77;99139.34;6192363;23;20487;-75
2021/12/07 07:17:56;;;;;;;1.50;0.68;;;;;;;5.05;71.36;99117.59;6191736;23;20067;-76
2021/12/07 07:20:24;;;;;;;1.15;0.57;;;;;;;5.18;72.06;99118.19;6191644;23;20005;-75
2021/12/07 07:22:52;;;;;;;0.55;0.20;;;;;;;5.26;71.58;99112.28;6198973;23;20021;-80
2021/12/07 07:25:18;;;;;;;4.10;0.70;;;;;;;5.37;72.17;99123.97;6171466;23;20024;-79
2021/12/07 07:28:15;;;;;;;5.22;0.60;;;;;;;5.22;72.25;99090.28;6192421;23;20012;-77
2021/12/07 07:30:33;;;;;;;2.70;0.35;;;;;;;5.41;72.30;99103.41;6188525;23;20436;-78
2021/12/07 07:32:59;;;;;;;3.15;0.40;;;;;;;5.46;71.89;99089.06;6167493;23;20115;-77
2021/12/07 07:35:24;;;;;;;5.32;0.88;;;;;;;5.55;71.50;99071.22;6194784;23;20055;-76
2021/12/07 07:38:19;;;;;;;2.28;0.60;;;;;;;5.56;71.64;99057.38;6195569;23;20009;-77
2021/12/07 07:40:58;;;;;;;;;;;;;;;;;;;;;
2021/12/07 07:43:38;;;;;;;4.43;0.82;;;;;;;5.45;71.37;99011.50;6193283;23;20026;-75
2021/12/07 07:46:03;;;;;;;2.90;0.50;;;;;;;5.49;71.72;99002.59;6191083;23;20012;-76
2021/12/07 07:48:31;;;;;;;2.33;0.70;;;;;;;5.57;71.65;99012.09;6166703;23;20009;-75
2021/12/07 07:51:07;;;;;;;;;;;;;;;;;;;;;
2021/12/07 07:53:33;;;;;;;2.13;0.45;;;;;;;5.55;71.50;98987.94;6193877;23;20340;-76
2021/12/07 07:56:02;;;;;;;8.48;0.70;;;;;;;5.84;71.61;99019.19;6190792;23;20069;-75
2021/12/07 07:58:37;;;;;;;;;;;;;;;;;;;;;
2021/12/07 08:04:33;;;;;;;1.83;0.73;;;;;;;5.77;71.61;98982.28;6123193;23;20028;-74
2021/12/07 08:07:09;;;;;;;;;;;;;;;;;;;;;
2021/12/07 08:09:42;;;;;;;2.17;0.57;;;;;;;5.84;71.64;99000.19;6192597;23;20377;-74
2021/12/07 08:12:08;;;;;;;3.30;0.93;;;;;;;5.80;71.86;98980.94;6191624;23;20001;-77
2021/12/07 08:17:56;;;;;;;8.25;1.00;;;;;;;5.79;75.02;98995.56;6200561;23;20068;-76
2021/12/07 08:20:25;;;;;;;1.13;0.75;;;;;;;5.85;74.23;98983.63;6196520;23;20000;-77
2021/12/07 08:22:52;;;;;;;3.88;0.50;;;;;;;5.84;74.90;98946.75;6198129;23;20001;-77
2021/12/07 08:25:17;;;;;;;8.88;1.58;;;;;;;5.97;75.71;98953.56;6192617;23;20024;-78
2021/12/07 08:34:31;;;;;;;9.82;1.52;;;;;;;5.98;76.11;98878.41;6191882;23;20427;-79
2021/12/07 08:37:25;;;;;;;12.38;1.65;;;;;;;6.06;76.24;98881.38;6189143;23;20001;-78
2021/12/07 08:39:59;;;;;;;3.95;1.15;;;;;;;5.93;76.92;98861.00;6191833;23;20012;-79
2021/12/07 08:42:41;;;;;;;3.67;1.40;;;;;;;6.10;76.75;98866.19;6187897;23;20000;-78
2021/12/07 08:45:13;;;;;;;2.85;0.75;;;;;;;6.03;77.13;98821.41;6178254;23;20001;-77
2021/12/07 08:48:11;;;;;;;;;;;;;;;;;;;;;
2021/12/07 08:50:41;;;;;;;2.90;0.63;;;;;;;6.25;77.30;98797.47;6194151;23;20032;-79
2021/12/07 08:53:26;;;;;;;1.23;0.50;;;;;;;6.42;77.10;98797.09;6192550;23;20005;-78
2021/12/07 09:01:29;;;;;;;7.00;1.35;;;;;;;6.66;77.90;98763.88;6194131;23;20019;-78
2021/12/07 09:04:17;;;;;;;;;;;;;;;;;;;;;
2021/12/07 09:06:47;;;;;;;3.78;1.45;;;;;;;6.78;78.28;98729.00;6193785;23;20017;-77
2021/12/07 09:09:32;;;;;;;8.50;1.17;;;;;;;6.68;77.57;98693.78;6188620;23;20380;-76
2021/12/07 09:12:17;;;;;;;10.43;1.92;;;;;;;6.76;77.82;98674.16;6189012;23;19997;-76
2021/12/07 09:14:53;;;;;;;12.23;2.40;;;;;;;6.88;79.43;98698.25;6189501;23;20201;-77
2021/12/07 09:17:19;;;;;;;6.50;1.67;;;;;;;7.21;78.90;98678.66;6188587;23;20166;-73
2021/12/07 09:19:46;;;;;;;8.73;1.10;;;;;;;7.34;78.03;98680.72;6189799;23;20005;-76
2021/12/07 09:22:15;;;;;;;9.68;1.30;;;;;;;7.53;78.31;98661.75;6164856;23;20009;-76
2021/12/07 09:24:49;;;;;;;11.43;1.20;;;;;;;7.63;77.20;98639.06;6192573;23;20001;-77
2021/12/07 09:27:30;;;;;;;10.32;1.23;;;;;;;7.85;76.56;98628.44;6190147;23;19998;-76
2021/12/07 09:29:55;;;;;;;9.10;1.17;;;;;;;7.77;75.52;98607.31;6195299;23;20476;-78
2021/12/07 09:32:21;;;;;;;18.33;2.35;;;;;;;7.89;75.39;98606.91;6141444;23;20001;-78
2021/12/07 09:34:51;;;;;;;5.50;1.15;;;;;;;7.94;74.72;98614.19;6201997;23;20004;-75
2021/12/07 09:37:27;;;;;;;8.60;1.30;;;;;;;8.00;73.65;98588.50;6180549;23;20005;-77
2021/12/07 09:39:53;;;;;;;14.13;1.48;;;;;;;7.84;72.49;98553.34;6203792;23;20057;-78
2021/12/07 09:42:36;;;;;;;;;;;;;;;;;;;;;
2021/12/07 09:45:56;;;;;;;11.80;1.20;;;;;;;8.00;70.96;98566.72;6190780;23;20447;-80
2021/12/07 09:48:25;;;;;;;10.15;1.00;;;;;;;8.13;72.18;98578.81;6151637;23;20083;-80
2021/12/07 09:51:02;;;;;;;15.70;1.67;;;;;;;7.78;73.89;98581.75;6191281;23;20089;-78
2021/12/07 09:56:38;;;;;;;3.88;0.88;;;;;;;7.40;77.26;98559.09;6165393;23;20030;-76
2021/12/07 09:59:33;;;;;;;;;;;;;;;;;;;;;
2021/12/07 10:01:58;;;;;;;8.48;1.27;;;;;;;7.27;79.72;98527.97;6198382;23;20008;-76
2021/12/07 10:04:39;;;;;;;5.82;1.05;;;;;;;7.22;79.95;98519.91;6198716;23;20025;-79
2021/12/07 10:07:15;;;;;;;7.90;1.48;;;;;;;7.12;80.22;98478.13;6172824;23;20005;-77
2021/12/07 10:09:41;;;;;;;5.90;0.95;;;;;;;7.20;80.25;98500.31;6203875;23;19993;-77
2021/12/07 10:12:07;;;;;;;8.70;1.23;;;;;;;7.24;81.08;98495.94;6210795;23;20036;-78
2021/12/07 10:14:55;;;;;;;6.60;1.75;;;;;;;7.30;81.19;98478.44;6200457;23;20080;-76
2021/12/07 10:17:43;;;;;;;7.85;1.02;;;;;;;7.18;81.67;98448.16;6201516;23;20001;-80
2021/12/07 10:20:33;;;;;;;20.38;2.38;;;;;;;7.31;82.30;98455.59;6202521;23;20012;-79
2021/12/07 10:23:05;;;;;;;13.43;1.55;;;;;;;7.29;82.31;98452.38;6203019;23;20000;-77
2021/12/07 10:25:43;;;;;;;;;;;;;;;;;;;;;
2021/12/07 10:28:49;;;;;;;16.70;1.98;;;;;;;7.39;82.38;98433.22;6201248;23;20005;-77
2021/12/07 10:31:17;;;;;;;14.10;2.05;;;;;;;7.46;83.16;98438.25;6200253;23;20020;-75
2021/12/07 10:34:18;;;;;;;;;;;;;;;;;;;;;
2021/12/07 10:36:51;;;;;;;11.45;1.70;;;;;;;7.50;83.67;98418.38;6186776;23;20093;-75
2021/12/07 10:39:32;;;;;;;18.10;2.13;;;;;;;7.42;84.08;98399.97;6189424;23;20001;-76
2021/12/07 10:42:13;;;;;;;14.07;1.98;;;;;;;7.34;83.92;98397.91;6190394;23;20013;-77
2021/12/07 10:44:40;;;;;;;12.65;1.60;;;;;;;7.49;85.00;98373.22;6197361;23;20001;-76
2021/12/07 10:47:12;;;;;;;20.02;2.03;;;;;;;7.43;84.79;98368.16;6197048;23;20474;-80
2021/12/07 10:50:27;;;;;;;13.30;1.48;;;;;;;7.59;84.72;98347.75;6200781;23;20024;-81
2021/12/07 10:53:00;;;;;;;13.55;2.92;;;;;;;7.34;84.77;98300.03;6194849;23;20012;-78
2021/12/07 10:55:30;;;;;;;8.18;0.77;;;;;;;7.45;85.26;98301.50;6200203;23;20021;-82
2021/12/07 11:01:36;;;;;;;15.05;2.28;;;;;;;7.40;86.26;98277.09;6108092;23;20030;-82
2021/12/07 11:04:37;;;;;;;15.93;2.05;;;;;;;7.60;85.67;98258.81;6089250;23;20022;-83
2021/12/07 11:07:19;;;;;;;10.05;1.23;;;;;;;7.63;86.64;98277.25;6116437;23;20072;-81
2021/12/07 11:09:58;;;;;;;9.52;1.50;;;;;;;7.51;86.80;98236.94;6202365;23;20035;-82
2021/12/07 11:13:12;;;;;;;;;;;;;;;;;;;;;
2021/12/07 11:19:01;;;;;;;22.25;2.47;;;;;;;7.55;87.27;98191.72;6197830;23;20340;-79
2021/12/07 11:31:45;;;;;;;9.55;1.98;;;;;;;7.88;87.49;98160.91;6185243;23;20316;-83
2021/12/07 11:34:43;;;;;;;;;;;;;;;;;;;;;
2021/12/07 11:40:21;;;;;;;;;;;;;;;;;;;;;
2021/12/07 11:43:17;;;;;;;5.10;1.33;;;;;;;7.70;86.83;98073.66;6208310;23;20017;-83
2021/12/07 11:46:30;;;;;;;4.55;1.50;;;;;;;7.98;87.36;98103.53;6196959;23;20032;-77
2021/12/07 11:49:22;;;;;;;7.20;1.25;;;;;;;7.77;86.99;98027.78;6161825;23;20007;-77
2021/12/07 11:51:56;;;;;;;12.10;1.45;;;;;;;7.80;87.64;98059.81;6195130;23;20007;-79
2021/12/07 11:54:34;;;;;;;5.32;1.20;;;;;;;7.89;87.01;98031.91;6195478;23;20080;-81
2021/12/07 11:57:05;;;;;;;4.28;1.52;;;;;;;7.73;87.51;98005.03;6190983;23;20013;-82
2021/12/07 11:59:49;;;;;;;9.40;2.00;;;;;;;7.72;87.12;97989.81;6193825;23;20005;-82
2021/12/07 12:02:24;;;;;;;6.70;1.15;;;;;;;7.83;87.51;98004.78;6196389;23;20009;-82
2021/12/07 12:04:52;;;;;;;10.98;1.25;;;;;;;7.81;88.17;98007.03;6194759;23;20024;-81
2021/12/07 12:07:19;;;;;;;4.80;1.27;;;;;;;7.68;87.52;97961.59;6166503;23;20072;-81
2021/12/07 12:10:40;;;;;;;9.38;2.03;;;;;;;7.85;87.69;97950.06;6193385;23;20065;-85
2021/12/07 12:13:41;;;;;;;5.18;0.98;;;;;;;7.84;87.38;97954.72;6195718;23;20001;-82
2021/12/07 12:16:25;;;;;;;;;;;;;;;;;;;;;
2021/12/07 12:19:22;;;;;;;5.22;1.08;;;;;;;7.65;87.28;97862.41;6195550;23;20024;-81
2021/12/07 12:22:14;;;;;;;7.43;1.67;;;;;;;7.72;86.98;97875.53;6197579;23;20000;-79
2021/12/07 12:24:47;;;;;;;3.05;1.20;;;;;;;7.80;87.50;97853.03;6192988;23;20001;-77
2021/12/07 12:27:40;;;;;;;;;;;;;;;;;;;;;
2021/12/07 12:30:17;;;;;;;6.35;1.13;;;;;;;7.65;87.38;97816.16;6205072;23;20001;-79
2021/12/07 12:33:14;;;;;;;10.30;1.73;;;;;;;7.72;87.39;97812.97;6207898;23;20023;-81
2021/12/07 12:35:42;;;;;;;5.18;1.35;;;;;;;7.72;87.45;97821.13;6200667;23;20013;-81
2021/12/07 12:38:21;;;;;;;5.05;0.85;;;;;;;7.74;87.85;97775.41;6194892;23;20005;-79
2021/12/07 12:40:58;;;;;;;4.70;1.00;;;;;;;7.60;88.00;97763.81;6194500;23;20004;-77
2021/12/07 12:44:15;;;;;;;10.82;0.77;;;;;;;7.83;87.74;97822.50;6193807;23;20009;-78
2021/12/07 12:46:59;;;;;;;3.83;0.63;;;;;;;7.54;86.93;97705.22;6194460;23;20001;-77
2021/12/07 12:49:42;;;;;;;4.07;1.23;;;;;;;7.77;87.09;97736.69;6193113;23;20005;-78
2021/12/07 12:52:08;;;;;;;0.93;0.43;;;;;;;7.78;87.19;97715.72;6190787;23;20005;-80
2021/12/07 12:54:44;;;;;;;3.83;0.60;;;;;;;7.81;87.62;97699.59;6189876;23;20013;-73
2021/12/07 12:57:18;;;;;;;7.20;0.90;;;;;;;7.71;87.77;97667.22;6189596;23;20013;-79
2021/12/07 12:59:47;;;;;;;5.72;0.82;;;;;;;7.74;87.95;97701.97;6191780;23;20037;-77
2021/12/07 13:02:16;;;;;;;9.25;1.23;;;;;;;7.80;88.05;97656.38;6192229;23;20133;-79
2021/12/07 13:05:14;;;;;;;;;;;;;;;;;;;;;
2021/12/07 13:07:40;;;;;;;9.45;0.85;;;;;;;7.60;87.96;97603.34;6193740;23;20021;-79
2021/12/07 13:10:06;;;;;;;4.47;0.88;;;;;;;7.77;87.71;97646.91;6169704;23;20020;-82
2021/12/07 13:12:34;;;;;;;5.93;1.17;;;;;;;8.01;88.07;97648.41;6194271;23;20040;-78
2021/12/07 13:15:20;;;;;;;;;;;;;;;;;;;;;
2021/12/07 13:17:49;;;;;;;3.28;0.88;;;;;;;8.13;88.21;97662.22;6196090;23;20025;-79
2021/12/07 13:20:28;;;;;;;3.53;0.95;;;;;;;8.16;88.17;97661.59;6170836;23;20017;-81
2021/12/07 13:23:07;;;;;;;2.30;0.60;;;;;;;8.04;88.66;97585.19;6193789;23;20339;-75
2021/12/07 13:25:42;;;;;;;0.88;0.77;;;;;;;8.07;87.91;97627.28;6194395;23;20443;-78
2021/12/07 13:28:29;;;;;;;1.55;0.45;;;;;;;8.09;88.15;97570.59;6191377;23;20076;-80
2021/12/07 13:31:01;;;;;;;1.10;0.80;;;;;;;8.37;88.27;97629.09;6192883;23;20100;-76
2021/12/07 13:33:44;;;;;;;;;;;;;;;;;;;;;
2021/12/07 13:36:49;;;;;;;;;;;;;;;;;;;;;
2021/12/07 13:39:29;;;;;;;;;;;;;;;;;;;;;
2021/12/07 13:42:13;;;;;;;0.73;0.50;;;;;;;8.50;88.71;97604.78;6186794;23;20393;-75
2021/12/07 13:44:54;;;;;;;;;;;;;;;;;;;;;
2021/12/07 13:47:28;;;;;;;1.48;0.70;;;;;;;8.56;88.96;97587.94;6187673;23;20028;-76
2021/12/07 13:50:02;;;;;;;2.33;0.60;;;;;;;8.77;88.67;97630.84;6187817;23;20004;-76
2021/12/07 13:52:36;;;;;;;7.03;1.42;;;;;;;8.63;89.20;97613.88;6183156;23;20001;-77
2021/12/07 13:55:39;;;;;;;;;;;;;;;;;;;;;
2021/12/07 13:58:06;;;;;;;6.85;1.95;;;;;;;8.44;88.71;97601.41;6183021;23;20442;-78
2021/12/07 14:00:57;;;;;;;2.78;1.25;;;;;;;8.47;88.70;97622.56;6188568;23;20001;-77
2021/12/07 14:03:23;;;;;;;9.98;1.83;;;;;;;8.39;88.58;97620.59;6167840;23;20016;-77
2021/12/07 14:05:51;;;;;;;7.90;1.10;;;;;;;8.41;88.63;97628.44;6190883;23;20005;-78
2021/12/07 14:08:19;;;;;;;14.98;2.20;;;;;;;8.39;88.64;97631.47;6188856;23;20041;-75
2021/12/07 14:10:52;;;;;;;7.00;1.70;;;;;;;8.42;88.91;97646.41;6188167;23;20064;-74
2021/12/07 14:13:20;;;;;;;5.03;1.30;;;;;;;8.33;88.29;97651.84;6186493;23;20336;-77
2021/12/07 14:15:48;;;;;;;4.10;1.15;;;;;;;8.26;88.16;97648.78;6187022;23;20011;-75
2021/12/07 14:18:17;;;;;;;6.38;1.38;;;;;;;8.20;88.34;97632.59;6180055;23;20452;-75
2021/12/07 14:20:48;;;;;;;3.97;1.30;;;;;;;8.23;88.66;97636.59;6187492;23;20008;-77
2021/12/07 14:24:02;;;;;;;7.63;1.20;;;;;;;8.13;87.49;97618.66;6178440;23;20008;-76
2021/12/07 14:26:38;;;;;;;6.25;2.78;;;;;;;7.96;88.65;97630.31;6070834;23;20033;-75
2021/12/07 14:29:07;;;;;;;2.47;0.93;;;;;;;8.07;87.97;97621.84;6075662;23;20006;-76
2021/12/07 14:31:48;;;;;;;6.72;2.17;;;;;;;8.05;88.21;97616.72;6145495;23;20332;-75
2021/12/07 14:34:26;;;;;;;2.13;0.70;;;;;;;8.06;88.08;97596.56;6186022;23;20013;-72
2021/12/07 14:36:57;;;;;;;1.20;0.82;;;;;;;8.12;88.17;97603.44;6188040;23;20013;-74
2021/12/07 14:39:32;;;;;;;6.13;1.45;;;;;;;8.11;87.77;97587.44;6189093;23;20051;-75
2021/12/07 14:42:08;;;;;;;5.22;1.35;;;;;;;8.16;88.02;97579.91;6190487;23;20005;-77
2021/12/07 14:44:40;;;;;;;4.97;1.33;;;;;;;8.17;87.95;97570.63;6190028;23;20060;-77
2021/12/07 14:47:09;;;;;;;8.63;1.90;;;;;;;8.38;88.29;97559.06;6189684;23;20005;-77
2021/12/07 14:49:37;;;;;;;8.05;1.50;;;;;;;8.74;87.99;97555.22;6193573;23;20005;-77
2021/12/07 14:52:11;;;;;;;7.93;1.70;;;;;;;9.43;87.27;97556.09;6190055;23;20001;-77
2021/12/07 14:54:40;;;;;;;7.28;1.42;;;;;;;9.81;85.09;97536.13;6190236;23;20001;-75
2021/12/07 14:57:36;;;;;;;6.60;1.10;;;;;;;10.41;84.40;97546.94;6192268;23;20009;-76
2021/12/07 15:00:04;;;;;;;2.88;1.05;;;;;;;10.56;82.95;97549.06;6193196;23;20068;-78
2021/12/07 15:02:43;;;;;;;6.22;1.83;;;;;;;10.50;83.41;97544.13;6192268;23;20069;-77
2021/12/07 15:05:20;;;;;;;6.80;1.67;;;;;;;10.34;83.79;97544.78;6194277;23;19997;-79
2021/12/07 15:07:45;;;;;;;2.53;0.93;;;;;;;10.20;83.94;97516.91;6191813;23;19997;-77
2021/12/07 15:10:17;;;;;;;2.92;1.20;;;;;;;10.18;84.45;97506.31;6193632;23;20001;-77
2021/12/07 15:13:14;;;;;;;;;;;;;;;;;;;;;
2021/12/07 15:15:50;;;;;;;;;;;;;;;;;;;;;
2021/12/07 15:18:16;;;;;;;4.45;2.10;;;;;;;9.71;84.20;97533.78;6194251;23;20028;-77
2021/12/07 15:20:47;;;;;;;3.47;1.50;;;;;;;9.35;84.83;97524.22;6193443;23;20016;-77
2021/12/07 15:23:12;;;;;;;3.65;1.33;;;;;;;9.18;84.87;97523.16;6193374;23;20061;-78
2021/12/07 15:25:40;;;;;;;15.35;2.38;;;;;;;9.07;85.84;97519.22;6169652;23;20013;-75
2021/12/07 15:28:05;;;;;;;5.72;1.92;;;;;;;9.02;85.70;97514.75;6188537;23;20060;-78
2021/12/07 15:30:39;;;;;;;10.35;2.85;;;;;;;8.90;86.13;97514.63;6192569;23;20012;-76
2021/12/07 15:33:31;;;;;;;5.75;2.05;;;;;;;8.63;85.91;97500.28;6146778;23;20030;-76
2021/12/07 15:36:13;;;;;;;8.55;2.50;;;;;;;8.49;86.13;97500.47;6194054;23;20002;-78
2021/12/07 15:38:41;;;;;;;5.97;1.50;;;;;;;8.34;85.93;97504.47;6191132;23;20011;-77
2021/12/07 15:41:16;;;;;;;8.90;1.95;;;;;;;8.15;86.26;97498.59;6166678;23;20073;-75
2021/12/07 15:43:44;;;;;;;10.93;1.52;;;;;;;8.01;86.02;97501.47;6190031;23;20020;-76
2021/12/07 15:46:19;;;;;;;6.50;2.15;;;;;;;7.93;86.86;97505.78;6190896;23;20009;-74